createdAt,value
2023-03-02T00:00:03.349Z,32.80
2023-03-02T00:01:03.333Z,33.70
2023-03-02T00:02:03.335Z,34.90
2023-03-02T00:03:03.392Z,31.80
2023-03-02T00:04:03.356Z,33.40
2023-03-02T00:05:03.309Z,33.00
2023-03-02T00:06:03.306Z,33.00
2023-03-02T00:07:03.275Z,33.80
2023-03-02T00:08:03.244Z,32.90
2023-03-02T00:09:03.236Z,32.80
2023-03-02T00:10:03.209Z,34.60
2023-03-02T00:11:03.220Z,33.50
2023-03-02T00:12:03.205Z,33.10
2023-03-02T00:13:03.198Z,33.30
2023-03-02T00:14:03.165Z,33.30
2023-03-02T00:15:03.173Z,35.30
2023-03-02T00:16:03.227Z,34.00
2023-03-02T00:17:03.136Z,34.40
2023-03-02T00:18:03.125Z,33.60
2023-03-02T00:19:03.134Z,32.70
2023-03-02T00:20:03.090Z,33.60
2023-03-02T00:21:03.102Z,33.40
2023-03-02T00:22:03.060Z,33.40
2023-03-02T00:23:03.080Z,33.70
2023-03-02T00:24:03.040Z,33.90
2023-03-02T00:25:03.018Z,33.70
2023-03-02T00:26:03.020Z,33.60
2023-03-02T00:27:03.005Z,32.80
2023-03-02T00:28:02.990Z,33.80
2023-03-02T00:29:03.003Z,33.60
2023-03-02T00:30:03.001Z,33.00
2023-03-02T00:31:02.962Z,33.00
2023-03-02T00:32:03.014Z,32.00
2023-03-02T00:33:02.918Z,33.70
2023-03-02T00:34:02.928Z,34.20
2023-03-02T00:35:02.909Z,33.00
2023-03-02T00:36:02.935Z,34.50
2023-03-02T00:37:02.876Z,32.90
2023-03-02T00:38:02.867Z,34.40
2023-03-02T00:39:02.848Z,33.40
2023-03-02T00:40:02.851Z,34.30
2023-03-02T00:41:02.832Z,34.80
2023-03-02T00:42:02.832Z,34.80
2023-03-02T00:43:02.807Z,34.00
2023-03-02T00:44:02.821Z,33.80
2023-03-02T00:45:02.773Z,33.60
2023-03-02T00:46:02.779Z,33.80
2023-03-02T00:47:02.827Z,34.20
2023-03-02T00:48:02.745Z,33.00
2023-03-02T00:49:02.731Z,33.80
2023-03-02T00:50:02.736Z,34.50
2023-03-02T00:51:02.704Z,34.20
2023-03-02T00:52:02.714Z,32.40
2023-03-02T00:53:02.685Z,33.60
2023-03-02T00:54:02.701Z,34.20
2023-03-02T00:55:02.669Z,34.00
2023-03-02T00:56:02.649Z,32.60
2023-03-02T00:57:02.619Z,32.40
2023-03-02T00:58:02.644Z,32.80
2023-03-02T00:59:02.607Z,32.60
2023-03-02T01:00:02.609Z,32.70
2023-03-02T01:01:02.586Z,33.10
2023-03-02T01:02:02.624Z,35.60
2023-03-02T01:03:02.620Z,32.60
2023-03-02T01:04:02.562Z,33.70
2023-03-02T01:05:02.518Z,33.40
2023-03-02T01:06:02.520Z,33.70
2023-03-02T01:07:02.508Z,33.80
2023-03-02T01:08:02.515Z,34.20
2023-03-02T01:09:02.518Z,33.70
2023-03-02T01:10:02.475Z,33.30
2023-03-02T01:11:02.447Z,33.10
2023-03-02T01:12:02.462Z,33.70
2023-03-02T01:13:02.428Z,35.60
2023-03-02T01:14:02.410Z,35.50
2023-03-02T01:15:02.417Z,32.50
2023-03-02T01:16:02.458Z,34.10
2023-03-02T01:17:02.389Z,33.90
2023-03-02T01:18:02.387Z,33.10
2023-03-02T01:19:02.358Z,33.00
2023-03-02T01:20:02.349Z,33.20
2023-03-02T01:21:02.339Z,34.40
2023-03-02T01:22:02.333Z,33.10
2023-03-02T01:23:02.305Z,34.90
2023-03-02T01:24:02.306Z,33.80
2023-03-02T01:25:02.316Z,33.00
2023-03-02T01:26:02.283Z,33.10
2023-03-02T01:27:02.269Z,34.00
2023-03-02T01:28:02.254Z,33.30
2023-03-02T01:29:02.232Z,33.00
2023-03-02T01:30:02.249Z,34.40
2023-03-02T01:31:02.265Z,33.10
2023-03-02T01:32:02.375Z,34.10
2023-03-02T01:33:02.227Z,34.50
2023-03-02T01:34:02.195Z,33.60
2023-03-02T01:35:02.178Z,34.30
2023-03-02T01:36:02.213Z,33.60
2023-03-02T01:37:02.135Z,35.60
2023-03-02T01:38:02.134Z,36.00
2023-03-02T01:39:02.137Z,33.70
2023-03-02T01:43:35.558Z,32.70
2023-03-02T01:44:35.543Z,32.90
2023-03-02T01:45:35.560Z,33.80
2023-03-02T01:46:35.524Z,33.30
2023-03-02T01:47:35.511Z,33.90
2023-03-02T01:48:35.512Z,34.40
2023-03-02T01:49:35.495Z,33.20
2023-03-02T01:50:35.456Z,32.90
2023-03-02T01:51:35.468Z,32.80
2023-03-02T01:52:35.461Z,34.70
2023-03-02T01:53:35.429Z,33.40
2023-03-02T01:54:35.429Z,33.40
2023-03-02T01:55:35.420Z,34.40
2023-03-02T01:56:35.400Z,33.80
2023-03-02T01:57:35.375Z,35.40
2023-03-02T01:58:35.390Z,33.60
2023-03-02T01:59:35.390Z,34.00
2023-03-02T02:00:35.369Z,33.10
2023-03-02T02:01:35.334Z,34.20
2023-03-02T02:02:35.355Z,34.00
2023-03-02T02:03:35.321Z,32.20
2023-03-02T02:04:35.314Z,34.40
2023-03-02T02:05:35.295Z,33.90
2023-03-02T02:06:35.367Z,34.20
2023-03-02T02:07:35.247Z,33.10
2023-03-02T02:08:35.268Z,33.30
2023-03-02T02:09:35.232Z,36.70
2023-03-02T02:10:35.345Z,34.10
2023-03-02T02:11:35.197Z,34.30
2023-03-02T02:12:35.209Z,34.30
2023-03-02T02:13:35.201Z,33.70
2023-03-02T02:14:35.179Z,33.70
2023-03-02T02:15:35.158Z,34.40
2023-03-02T02:16:35.677Z,35.00
2023-03-02T02:17:35.179Z,32.40
2023-03-02T02:18:35.126Z,35.80
2023-03-02T02:19:35.120Z,35.10
2023-03-02T02:20:35.121Z,33.70
2023-03-02T02:21:35.089Z,33.30
2023-03-02T02:22:35.076Z,35.30
2023-03-02T02:23:35.077Z,32.60
2023-03-02T02:24:35.087Z,33.30
2023-03-02T02:25:35.038Z,34.10
2023-03-02T02:26:35.445Z,33.80
2023-03-02T02:27:35.017Z,33.50
2023-03-02T02:28:35.033Z,33.30
2023-03-02T02:29:34.973Z,35.60
2023-03-02T02:30:34.989Z,33.40
2023-03-02T02:31:35.009Z,33.60
2023-03-02T02:32:34.968Z,34.80
2023-03-02T02:33:34.963Z,36.60
2023-03-02T02:34:34.915Z,34.70
2023-03-02T02:35:34.983Z,35.40
2023-03-02T02:36:34.976Z,34.10
2023-03-02T02:37:34.874Z,34.30
2023-03-02T02:38:35.014Z,34.50
2023-03-02T02:39:34.852Z,33.80
2023-03-02T02:40:34.852Z,34.00
2023-03-02T02:41:34.837Z,35.60
2023-03-02T02:42:34.832Z,33.80
2023-03-02T02:43:34.839Z,34.00
2023-03-02T02:44:34.813Z,33.40
2023-03-02T02:45:34.822Z,36.10
2023-03-02T02:46:35.090Z,34.00
2023-03-02T02:47:34.775Z,33.40
2023-03-02T02:48:34.741Z,35.10
2023-03-02T02:49:34.765Z,35.00
2023-03-02T02:50:34.742Z,34.40
2023-03-02T02:51:34.702Z,34.70
2023-03-02T02:52:34.713Z,34.20
2023-03-02T02:53:34.690Z,33.30
2023-03-02T02:54:34.683Z,35.90
2023-03-02T02:55:34.694Z,35.80
2023-03-02T02:56:35.032Z,33.70
2023-03-02T02:57:34.643Z,32.40
2023-03-02T02:58:34.622Z,33.10
2023-03-02T02:59:34.615Z,32.30
2023-03-02T03:00:34.600Z,33.70
2023-03-02T03:01:34.637Z,36.30
2023-03-02T03:02:34.591Z,34.10
2023-03-02T03:03:34.555Z,35.30
2023-03-02T03:04:34.570Z,33.80
2023-03-02T03:05:34.544Z,33.60
2023-03-02T03:06:41.564Z,35.40
2023-03-02T03:07:34.522Z,34.20
2023-03-02T03:08:34.522Z,34.60
2023-03-02T03:09:34.522Z,34.10
2023-03-02T03:10:34.502Z,35.10
2023-03-02T03:11:34.474Z,35.70
2023-03-02T03:12:34.473Z,35.20
2023-03-02T03:13:34.438Z,34.70
2023-03-02T03:14:34.440Z,34.20
2023-03-02T03:15:34.420Z,33.80
2023-03-02T03:16:34.847Z,35.20
2023-03-02T03:17:34.387Z,35.40
2023-03-02T03:18:34.371Z,36.00
2023-03-02T03:19:34.355Z,34.30
2023-03-02T03:20:34.362Z,35.10
2023-03-02T03:21:34.347Z,35.00
2023-03-02T03:22:34.334Z,35.70
2023-03-02T03:23:34.324Z,34.90
2023-03-02T03:24:34.307Z,36.80
2023-03-02T03:25:34.286Z,33.20
2023-03-02T03:26:34.535Z,34.80
2023-03-02T03:27:34.266Z,33.90
2023-03-02T03:28:34.275Z,34.20
2023-03-02T03:29:34.231Z,35.80
2023-03-02T03:30:34.249Z,35.30
2023-03-02T03:31:34.214Z,35.00
2023-03-02T03:32:34.189Z,34.30
2023-03-02T03:33:34.173Z,34.20
2023-03-02T03:34:34.193Z,35.00
2023-03-02T03:35:34.200Z,35.90
2023-03-02T03:36:34.608Z,34.20
2023-03-02T03:37:34.132Z,33.60
2023-03-02T03:38:34.159Z,34.90
2023-03-02T03:39:34.119Z,36.70
2023-03-02T03:40:34.099Z,35.10
2023-03-02T03:41:34.080Z,34.70
2023-03-02T03:42:34.058Z,35.30
2023-03-02T03:43:34.048Z,35.60
2023-03-02T03:44:34.091Z,34.60
2023-03-02T03:45:34.036Z,35.20
2023-03-02T03:46:34.487Z,34.00
2023-03-02T03:47:33.999Z,34.60
2023-03-02T03:48:33.986Z,35.00
2023-03-02T03:49:34.006Z,35.90
2023-03-02T03:50:33.975Z,36.50
2023-03-02T03:51:33.946Z,35.20
2023-03-02T03:52:33.948Z,35.40
2023-03-02T03:53:33.917Z,35.70
2023-03-02T03:54:33.911Z,36.30
2023-03-02T03:55:33.917Z,34.10
2023-03-02T03:56:34.159Z,35.80
2023-03-02T03:57:33.876Z,34.30
2023-03-02T03:58:33.895Z,34.60
2023-03-02T03:59:33.865Z,34.40
2023-03-02T04:00:33.871Z,34.50
2023-03-02T04:01:33.885Z,33.90
2023-03-02T04:02:33.858Z,35.90
2023-03-02T04:03:34.183Z,33.40
2023-03-02T04:04:33.816Z,34.70
2023-03-02T04:05:33.794Z,34.90
2023-03-02T04:06:34.125Z,35.00
2023-03-02T04:07:33.741Z,34.60
2023-03-02T04:08:33.769Z,34.30
2023-03-02T04:09:33.733Z,34.20
2023-03-02T04:10:33.747Z,34.20
2023-03-02T04:11:34.108Z,34.30
2023-03-02T04:12:33.698Z,35.50
2023-03-02T04:13:33.675Z,35.60
2023-03-02T04:14:33.694Z,34.90
2023-03-02T04:15:33.715Z,35.30
2023-03-02T04:16:33.959Z,34.60
2023-03-02T04:17:33.639Z,33.20
2023-03-02T04:18:33.625Z,34.50
2023-03-02T04:19:33.607Z,33.90
2023-03-02T04:20:33.645Z,33.90
2023-03-02T04:21:33.560Z,34.60
2023-03-02T04:22:33.548Z,34.30
2023-03-02T04:23:33.562Z,34.50
2023-03-02T04:24:33.543Z,33.40
2023-03-02T04:25:33.539Z,34.20
2023-03-02T04:26:33.826Z,34.90
2023-03-02T04:27:33.530Z,35.50
2023-03-02T04:28:33.484Z,33.60
2023-03-02T04:29:33.469Z,35.50
2023-03-02T04:30:33.476Z,35.50
2023-03-02T04:31:33.463Z,33.50
2023-03-02T04:32:33.481Z,33.50
2023-03-02T04:33:33.444Z,34.40
2023-03-02T04:34:33.434Z,32.90
2023-03-02T04:35:33.421Z,35.20
2023-03-02T04:36:33.398Z,35.60
2023-03-02T04:37:33.382Z,35.40
2023-03-02T04:38:33.382Z,34.30
2023-03-02T04:39:33.360Z,33.90
2023-03-02T04:40:33.365Z,39.60
2023-03-02T04:41:33.330Z,34.50
2023-03-02T04:42:33.321Z,34.70
2023-03-02T04:43:33.347Z,35.90
2023-03-02T04:44:33.316Z,34.60
2023-03-02T04:45:33.295Z,35.50
2023-03-02T04:46:33.657Z,35.40
2023-03-02T04:47:33.252Z,35.50
2023-03-02T04:48:33.257Z,34.30
2023-03-02T04:49:33.257Z,34.40
2023-03-02T04:50:33.266Z,36.50
2023-03-02T04:51:33.216Z,34.50
2023-03-02T04:52:33.194Z,34.70
2023-03-02T04:53:33.242Z,35.30
2023-03-02T04:54:33.185Z,35.30
2023-03-02T04:55:33.190Z,34.40
2023-03-02T04:56:33.454Z,34.50
2023-03-02T04:57:33.124Z,33.70
2023-03-02T04:58:33.148Z,35.50
2023-03-02T04:59:33.120Z,34.90
2023-03-02T05:00:33.636Z,34.60
2023-03-02T05:01:33.097Z,34.20
2023-03-02T05:02:33.141Z,33.90
2023-03-02T05:03:33.052Z,34.10
2023-03-02T05:04:33.137Z,33.60
2023-03-02T05:05:33.043Z,36.20
2023-03-02T05:06:33.451Z,33.90
2023-03-02T05:07:33.001Z,32.60
2023-03-02T05:08:33.026Z,34.60
2023-03-02T05:09:33.004Z,34.20
2023-03-02T05:10:33.025Z,36.90
2023-03-02T05:11:32.959Z,35.70
2023-03-02T05:12:32.965Z,35.50
2023-03-02T05:13:32.942Z,34.80
2023-03-02T05:14:32.921Z,34.40
2023-03-02T05:15:32.922Z,35.60
2023-03-02T05:16:33.308Z,34.10
2023-03-02T05:17:32.893Z,34.10
2023-03-02T05:18:32.869Z,35.30
2023-03-02T05:19:32.861Z,34.80
2023-03-02T05:20:32.850Z,33.80
2023-03-02T05:21:32.837Z,37.00
2023-03-02T05:22:32.818Z,34.70
2023-03-02T05:23:32.800Z,36.00
2023-03-02T05:24:32.790Z,33.80
2023-03-02T05:25:32.769Z,34.60
2023-03-02T05:26:33.105Z,35.40
2023-03-02T05:27:32.751Z,35.00
2023-03-02T05:28:32.760Z,35.70
2023-03-02T05:29:32.742Z,35.10
2023-03-02T05:30:32.744Z,33.90
2023-03-02T05:31:32.740Z,33.70
2023-03-02T05:32:32.737Z,35.20
2023-03-02T05:33:32.720Z,34.70
2023-03-02T05:34:32.712Z,35.50
2023-03-02T05:35:32.660Z,34.30
2023-03-02T05:36:32.974Z,34.40
2023-03-02T05:37:32.643Z,34.30
2023-03-02T05:38:32.627Z,34.10
2023-03-02T05:39:32.609Z,34.10
2023-03-02T05:40:32.610Z,34.40
2023-03-02T05:41:32.596Z,34.40
2023-03-02T05:42:32.569Z,34.50
2023-03-02T05:43:32.558Z,33.90
2023-03-02T05:44:32.563Z,33.20
2023-03-02T05:45:32.526Z,34.60
2023-03-02T05:46:32.935Z,34.80
2023-03-02T05:47:32.512Z,32.90
2023-03-02T05:48:32.508Z,35.50
2023-03-02T05:49:32.490Z,33.90
2023-03-02T05:50:32.496Z,36.60
2023-03-02T05:51:32.462Z,35.80
2023-03-02T05:52:32.459Z,33.50
2023-03-02T05:53:32.442Z,35.80
2023-03-02T05:54:32.436Z,36.10
2023-03-02T05:55:32.432Z,34.60
2023-03-02T05:56:32.865Z,36.60
2023-03-02T05:57:32.388Z,35.20
2023-03-02T05:58:32.388Z,34.30
2023-03-02T05:59:32.373Z,34.60
2023-03-02T06:00:32.343Z,32.90
2023-03-02T06:01:32.648Z,35.50
2023-03-02T06:02:32.329Z,35.70
2023-03-02T06:03:32.351Z,33.80
2023-03-02T06:04:32.316Z,33.70
2023-03-02T06:05:32.297Z,33.90
2023-03-02T06:06:34.037Z,34.10
2023-03-02T06:07:32.264Z,33.80
2023-03-02T06:08:32.269Z,34.80
2023-03-02T06:09:32.255Z,34.60
2023-03-02T06:10:32.233Z,33.40
2023-03-02T06:11:32.231Z,35.10
2023-03-02T06:12:32.196Z,33.60
2023-03-02T06:13:32.172Z,34.60
2023-03-02T06:14:32.158Z,34.10
2023-03-02T06:15:32.151Z,34.80
2023-03-02T06:16:32.556Z,34.80
2023-03-02T06:17:32.144Z,35.30
2023-03-02T06:18:32.109Z,34.40
2023-03-02T06:19:32.116Z,34.20
2023-03-02T06:20:32.103Z,33.50
2023-03-02T06:21:32.076Z,34.50
2023-03-02T06:22:32.076Z,35.10
2023-03-02T06:23:32.058Z,34.30
2023-03-02T06:24:32.029Z,35.00
2023-03-02T06:25:32.035Z,35.50
2023-03-02T06:26:32.372Z,36.80
2023-03-02T06:27:32.052Z,35.40
2023-03-02T06:28:34.265Z,33.50
2023-03-02T06:29:32.995Z,34.20
2023-03-02T06:30:31.967Z,35.90
2023-03-02T06:31:31.990Z,34.90
2023-03-02T06:32:31.948Z,32.90
2023-03-02T06:33:31.948Z,33.90
2023-03-02T06:34:33.548Z,37.10
2023-03-02T06:35:31.961Z,33.40
2023-03-02T06:36:32.330Z,32.90
2023-03-02T06:37:31.893Z,34.70
2023-03-02T06:38:31.880Z,34.10
2023-03-02T06:39:31.853Z,34.50
2023-03-02T06:40:32.667Z,36.10
2023-03-02T06:41:32.084Z,35.60
2023-03-02T06:42:31.825Z,37.00
2023-03-02T06:43:31.813Z,35.20
2023-03-02T06:44:31.804Z,38.80
2023-03-02T06:45:31.825Z,34.40
2023-03-02T06:46:32.106Z,34.00
2023-03-02T06:47:31.750Z,35.20
2023-03-02T06:48:31.778Z,33.80
2023-03-02T06:49:31.745Z,34.20
2023-03-02T06:50:31.758Z,36.20
2023-03-02T06:51:31.723Z,36.30
2023-03-02T06:52:31.700Z,34.80
2023-03-02T06:53:31.686Z,35.00
2023-03-02T06:54:31.670Z,35.30
2023-03-02T06:55:31.674Z,34.30
2023-03-02T06:56:31.950Z,34.70
2023-03-02T06:57:31.661Z,33.40
2023-03-02T06:58:31.674Z,36.20
2023-03-02T06:59:31.602Z,33.10
2023-03-02T07:00:31.645Z,34.30
2023-03-02T07:01:31.932Z,35.70
2023-03-02T07:02:31.559Z,35.10
2023-03-02T07:03:31.614Z,34.90
2023-03-02T07:04:31.545Z,34.80
2023-03-02T07:05:31.527Z,35.90
2023-03-02T07:06:31.520Z,34.90
2023-03-02T07:07:31.512Z,34.20
2023-03-02T07:08:31.517Z,35.00
2023-03-02T07:09:31.500Z,34.70
2023-03-02T07:10:31.455Z,34.60
2023-03-02T07:11:31.771Z,34.40
2023-03-02T07:12:31.438Z,34.30
2023-03-02T07:13:31.448Z,33.50
2023-03-02T07:14:31.417Z,35.80
2023-03-02T07:15:31.428Z,35.70
2023-03-02T07:16:31.403Z,35.20
2023-03-02T07:17:31.386Z,34.10
2023-03-02T07:18:31.366Z,35.30
2023-03-02T07:19:31.368Z,33.90
2023-03-02T07:20:31.345Z,36.20
2023-03-02T07:21:31.632Z,33.50
2023-03-02T07:22:31.303Z,36.40
2023-03-02T07:23:31.298Z,34.30
2023-03-02T07:24:31.283Z,35.60
2023-03-02T07:25:31.286Z,34.30
2023-03-02T07:26:31.264Z,34.90
2023-03-02T07:27:31.255Z,33.00
2023-03-02T07:28:31.238Z,34.20
2023-03-02T07:29:31.237Z,33.30
2023-03-02T07:30:31.356Z,33.60
2023-03-02T07:31:31.569Z,34.90
2023-03-02T07:32:31.231Z,34.60
2023-03-02T07:33:31.163Z,35.10
2023-03-02T07:34:31.153Z,34.70
2023-03-02T07:35:31.172Z,35.60
2023-03-02T07:36:31.134Z,33.90
2023-03-02T07:37:31.130Z,36.40
2023-03-02T07:38:31.105Z,34.60
2023-03-02T07:39:31.094Z,34.40
2023-03-02T07:40:31.086Z,33.70
2023-03-02T07:41:31.557Z,33.50
2023-03-02T07:42:31.064Z,33.90
2023-03-02T07:43:31.066Z,35.00
2023-03-02T07:44:31.038Z,33.90
2023-03-02T07:45:31.036Z,33.30
2023-03-02T07:46:31.051Z,35.60
2023-03-02T07:47:31.006Z,34.30
2023-03-02T07:48:30.992Z,34.80
2023-03-02T07:49:30.962Z,34.10
2023-03-02T07:50:30.968Z,36.00
2023-03-02T07:51:31.110Z,32.80
2023-03-02T07:52:30.952Z,35.80
2023-03-02T07:53:30.939Z,33.00
2023-03-02T07:54:30.915Z,33.60
2023-03-02T07:55:30.910Z,32.60
2023-03-02T07:56:30.883Z,32.70
2023-03-02T07:57:30.877Z,33.40
2023-03-02T07:58:30.851Z,35.10
2023-03-02T07:59:30.846Z,33.10
2023-03-02T08:00:30.861Z,34.10
2023-03-02T08:01:31.350Z,35.60
2023-03-02T08:02:30.937Z,34.40
2023-03-02T08:03:30.794Z,33.80
2023-03-02T08:04:30.792Z,34.10
2023-03-02T08:05:30.800Z,33.70
2023-03-02T08:06:30.756Z,34.90
2023-03-02T08:07:30.741Z,34.40
2023-03-02T08:08:30.735Z,33.40
2023-03-02T08:09:30.735Z,34.20
2023-03-02T08:10:30.716Z,32.90
2023-03-02T08:11:30.953Z,34.60
2023-03-02T08:12:30.688Z,36.00
2023-03-02T08:13:30.690Z,34.60
2023-03-02T08:14:30.666Z,33.80
2023-03-02T08:15:30.710Z,32.90
2023-03-02T08:16:30.734Z,34.30
2023-03-02T08:17:30.633Z,33.20
2023-03-02T08:18:30.596Z,33.30
2023-03-02T08:19:30.594Z,32.40
2023-03-02T08:20:30.627Z,35.70
2023-03-02T08:21:30.728Z,32.60
2023-03-02T08:22:30.567Z,34.10
2023-03-02T08:23:30.557Z,34.20
2023-03-02T08:24:30.539Z,33.50
2023-03-02T08:25:30.529Z,34.80
2023-03-02T08:26:30.518Z,35.30
2023-03-02T08:27:30.509Z,34.50
2023-03-02T08:28:30.488Z,34.80
2023-03-02T08:29:30.473Z,33.30
2023-03-02T08:30:30.450Z,32.60
2023-03-02T08:31:30.567Z,35.10
2023-03-02T08:32:30.452Z,33.40
2023-03-02T08:33:30.417Z,34.30
2023-03-02T08:34:30.399Z,34.10
2023-03-02T08:35:30.456Z,35.50
2023-03-02T08:36:30.447Z,33.80
2023-03-02T08:37:30.375Z,34.60
2023-03-02T08:38:30.375Z,32.60
2023-03-02T08:39:30.453Z,32.40
2023-03-02T08:40:30.324Z,34.20
2023-03-02T08:41:30.681Z,33.30
2023-03-02T08:42:30.342Z,34.70
2023-03-02T08:43:30.286Z,37.70
2023-03-02T08:44:30.264Z,35.20
2023-03-02T08:45:30.353Z,33.80
2023-03-02T08:46:30.256Z,33.80
2023-03-02T08:47:30.248Z,34.10
2023-03-02T08:48:30.243Z,31.70
2023-03-02T08:49:30.234Z,33.90
2023-03-02T08:50:30.199Z,33.70
2023-03-02T08:51:30.198Z,34.60
2023-03-02T08:52:30.167Z,32.80
2023-03-02T08:53:30.154Z,35.60
2023-03-02T08:54:30.164Z,35.30
2023-03-02T08:55:30.211Z,32.70
2023-03-02T08:56:30.122Z,33.60
2023-03-02T08:57:30.115Z,33.00
2023-03-02T08:58:30.122Z,32.30
2023-03-02T08:59:30.104Z,31.90
2023-03-02T09:00:31.649Z,33.50
2023-03-02T09:01:30.191Z,31.60
2023-03-02T09:02:30.065Z,35.00
2023-03-02T09:03:30.032Z,32.60
2023-03-02T09:04:30.054Z,31.90
2023-03-02T09:05:30.024Z,33.40
2023-03-02T09:06:29.985Z,33.20
2023-03-02T09:07:36.979Z,31.20
2023-03-02T09:08:29.949Z,31.80
2023-03-02T09:09:29.952Z,31.60
2023-03-02T09:10:29.953Z,32.40
2023-03-02T09:11:29.918Z,34.00
2023-03-02T09:12:29.906Z,33.40
2023-03-02T09:13:29.888Z,33.20
2023-03-02T09:14:29.902Z,33.50
2023-03-02T09:15:29.883Z,32.40
2023-03-02T09:16:29.908Z,33.10
2023-03-02T09:17:29.852Z,32.70
2023-03-02T09:18:29.844Z,33.90
2023-03-02T09:19:29.824Z,31.90
2023-03-02T09:20:29.834Z,33.00
2023-03-02T09:21:29.824Z,34.10
2023-03-02T09:22:29.790Z,32.90
2023-03-02T09:23:29.774Z,32.70
2023-03-02T09:24:29.772Z,31.20
2023-03-02T09:25:29.780Z,34.90
2023-03-02T09:26:29.781Z,33.60
2023-03-02T09:27:29.764Z,33.60
2023-03-02T09:28:29.723Z,30.90
2023-03-02T09:29:29.705Z,33.60
2023-03-02T09:30:29.713Z,34.00
2023-03-02T09:31:30.518Z,30.90
2023-03-02T09:32:29.884Z,32.10
2023-03-02T09:33:29.657Z,32.20
2023-03-02T09:34:29.634Z,33.90
2023-03-02T09:35:29.648Z,32.80
2023-03-02T09:36:29.593Z,31.80
2023-03-02T09:37:29.674Z,33.20
2023-03-02T09:38:29.609Z,31.00
2023-03-02T09:39:29.584Z,32.30
2023-03-02T09:40:29.585Z,34.20
2023-03-02T09:41:29.546Z,33.00
2023-03-02T09:42:41.688Z,34.10
2023-03-02T09:43:30.536Z,32.20
2023-03-02T09:44:29.515Z,31.50
2023-03-02T09:45:29.525Z,32.50
2023-03-02T09:46:29.472Z,30.20
2023-03-02T09:47:35.498Z,32.30
2023-03-02T09:48:30.465Z,31.70
2023-03-02T09:49:29.454Z,34.30
2023-03-02T09:50:29.468Z,31.70
2023-03-02T09:51:29.426Z,31.40
2023-03-02T09:52:29.481Z,34.80
2023-03-02T09:53:29.409Z,32.30
2023-03-02T09:54:29.488Z,31.30
2023-03-02T09:55:29.400Z,32.30
2023-03-02T09:56:29.365Z,33.40
2023-03-02T09:57:29.352Z,32.30
2023-03-02T09:58:29.338Z,31.00
2023-03-02T09:59:29.322Z,30.80
2023-03-02T10:00:29.319Z,31.60
2023-03-02T10:01:29.307Z,32.40
2023-03-02T10:02:29.284Z,32.60
2023-03-02T10:03:29.369Z,32.00
2023-03-02T10:04:29.441Z,32.70
2023-03-02T10:05:29.249Z,31.20
2023-03-02T10:06:29.221Z,33.50
2023-03-02T10:07:29.218Z,33.40
2023-03-02T10:08:29.198Z,33.00
2023-03-02T10:09:29.199Z,31.20
2023-03-02T10:10:29.173Z,32.90
2023-03-02T10:11:29.201Z,32.10
2023-03-02T10:12:29.139Z,31.90
2023-03-02T10:13:29.146Z,31.40
2023-03-02T10:14:29.123Z,31.40
2023-03-02T10:15:29.152Z,35.60
2023-03-02T10:16:29.149Z,33.50
2023-03-02T10:17:29.100Z,31.10
2023-03-02T10:18:29.110Z,33.10
2023-03-02T10:19:29.084Z,33.70
2023-03-02T10:20:34.164Z,31.90
2023-03-02T10:21:30.059Z,31.60
2023-03-02T10:22:29.024Z,32.10
2023-03-02T10:23:29.040Z,32.30
2023-03-02T10:24:29.254Z,31.70
2023-03-02T10:25:28.997Z,30.00
2023-03-02T10:26:28.994Z,31.80
2023-03-02T10:27:28.982Z,31.80
2023-03-02T10:28:28.965Z,31.40
2023-03-02T10:29:28.928Z,32.00
2023-03-02T10:30:28.931Z,30.20
2023-03-02T10:31:28.953Z,30.50
2023-03-02T10:32:28.945Z,30.60
2023-03-02T10:33:28.884Z,31.40
2023-03-02T10:34:28.861Z,31.60
2023-03-02T10:35:28.899Z,31.00
2023-03-02T10:36:28.843Z,32.20
2023-03-02T10:37:28.865Z,32.10
2023-03-02T10:38:28.831Z,31.50
2023-03-02T10:39:28.812Z,32.10
2023-03-02T10:40:28.813Z,31.50
2023-03-02T10:41:28.780Z,31.10
2023-03-02T10:42:28.827Z,31.00
2023-03-02T10:43:28.747Z,31.80
2023-03-02T10:44:28.755Z,31.20
2023-03-02T10:45:28.800Z,35.10
2023-03-02T10:46:28.777Z,30.20
2023-03-02T10:47:28.751Z,30.40
2023-03-02T10:48:28.700Z,30.60
2023-03-02T10:49:28.736Z,32.00
2023-03-02T10:50:28.905Z,30.50
2023-03-02T10:51:28.660Z,32.40
2023-03-02T10:52:28.650Z,30.40
2023-03-02T10:53:28.631Z,31.60
2023-03-02T10:54:28.632Z,31.50
2023-03-02T10:55:28.610Z,32.60
2023-03-02T10:56:28.640Z,33.20
2023-03-02T10:57:28.604Z,31.60
2023-03-02T10:58:28.553Z,30.10
2023-03-02T10:59:28.552Z,30.90
2023-03-02T11:00:28.568Z,32.10
2023-03-02T11:01:28.627Z,30.30
2023-03-02T11:02:28.538Z,31.90
2023-03-02T11:03:28.494Z,30.40
2023-03-02T11:04:28.567Z,30.80
2023-03-02T11:05:28.468Z,32.10
2023-03-02T11:06:28.477Z,32.10
2023-03-02T11:07:28.450Z,31.10
2023-03-02T11:08:28.486Z,30.50
2023-03-02T11:09:28.433Z,29.80
2023-03-02T11:10:28.427Z,31.60
2023-03-02T11:11:28.455Z,31.30
2023-03-02T11:12:28.390Z,29.90
2023-03-02T11:13:28.368Z,32.50
2023-03-02T11:14:28.423Z,31.40
2023-03-02T11:15:28.337Z,32.80
2023-03-02T11:16:28.586Z,31.00
2023-03-02T11:17:28.332Z,30.50
2023-03-02T11:18:28.297Z,29.70
2023-03-02T11:19:28.288Z,31.40
2023-03-02T11:20:28.287Z,29.40
2023-03-02T11:21:28.281Z,30.20
2023-03-02T11:22:28.247Z,29.10
2023-03-02T11:23:28.288Z,29.40
2023-03-02T11:24:28.231Z,31.30
2023-03-02T11:25:28.208Z,31.80
2023-03-02T11:26:28.245Z,32.50
2023-03-02T11:27:28.191Z,30.00
2023-03-02T11:28:28.212Z,30.30
2023-03-02T11:29:28.181Z,30.90
2023-03-02T11:30:28.233Z,30.20
2023-03-02T11:31:28.200Z,28.80
2023-03-02T11:32:28.260Z,28.90
2023-03-02T11:33:28.135Z,29.90
2023-03-02T11:34:28.098Z,28.90
2023-03-02T11:35:28.130Z,31.30
2023-03-02T11:36:28.067Z,29.20
2023-03-02T11:37:28.083Z,26.90
2023-03-02T11:38:28.053Z,28.30
2023-03-02T11:39:28.054Z,30.30
2023-03-02T11:40:28.028Z,30.50
2023-03-02T11:41:28.017Z,28.50
2023-03-02T11:42:28.138Z,30.10
2023-03-02T11:43:27.972Z,31.60
2023-03-02T11:44:29.930Z,30.30
2023-03-02T11:45:28.012Z,27.10
2023-03-02T11:46:27.954Z,28.50
2023-03-02T11:47:28.681Z,28.60
2023-03-02T11:48:30.830Z,31.80
2023-03-02T11:49:27.912Z,29.70
2023-03-02T11:50:27.904Z,30.20
2023-03-02T11:51:27.928Z,29.10
2023-03-02T11:52:28.027Z,30.30
2023-03-02T11:53:27.921Z,27.80
2023-03-02T11:54:27.838Z,29.80
2023-03-02T11:55:27.831Z,31.50
2023-03-02T11:56:27.836Z,28.90
2023-03-02T11:57:27.792Z,28.80
2023-03-02T11:58:27.810Z,29.10
2023-03-02T11:59:28.919Z,30.60
2023-03-02T12:00:27.781Z,27.90
2023-03-02T12:01:27.814Z,29.10
2023-03-02T12:02:27.763Z,29.20
2023-03-02T12:03:27.736Z,28.80
2023-03-02T12:04:27.724Z,29.00
2023-03-02T12:05:27.699Z,28.90
2023-03-02T12:06:27.747Z,30.70
2023-03-02T12:07:27.674Z,28.00
2023-03-02T12:08:27.665Z,30.20
2023-03-02T12:09:27.731Z,30.50
2023-03-02T12:10:27.654Z,31.60
2023-03-02T12:11:27.634Z,32.20
2023-03-02T12:12:27.623Z,30.80
2023-03-02T12:13:27.589Z,30.70
2023-03-02T12:14:27.621Z,30.60
2023-03-02T12:15:27.571Z,30.90
2023-03-02T12:16:27.592Z,30.70
2023-03-02T12:17:27.574Z,31.20
2023-03-02T12:18:27.558Z,31.30
2023-03-02T12:19:27.521Z,30.50
2023-03-02T12:20:27.546Z,30.90
2023-03-02T12:21:27.503Z,30.40
2023-03-02T12:22:27.485Z,31.30
2023-03-02T12:23:27.465Z,30.60
2023-03-02T12:24:27.466Z,31.20
2023-03-02T12:25:27.453Z,29.20
2023-03-02T12:26:27.466Z,28.90
2023-03-02T12:27:27.505Z,30.60
2023-03-02T12:28:27.433Z,30.00
2023-03-02T12:29:27.431Z,28.60
2023-03-02T12:30:27.449Z,29.50
2023-03-02T12:31:27.460Z,32.00
2023-03-02T12:32:27.436Z,30.90
2023-03-02T12:33:27.403Z,30.10
2023-03-02T12:34:27.337Z,29.10
2023-03-02T12:35:27.343Z,29.30
2023-03-02T12:36:27.346Z,28.80
2023-03-02T12:37:27.314Z,29.40
2023-03-02T12:38:27.297Z,30.80
2023-03-02T12:39:27.283Z,30.20
2023-03-02T12:40:27.261Z,29.40
2023-03-02T12:41:27.256Z,28.30
2023-03-02T12:42:27.251Z,28.70
2023-03-02T12:43:27.216Z,31.50
2023-03-02T12:44:27.202Z,28.60
2023-03-02T12:45:27.340Z,30.70
2023-03-02T12:46:27.201Z,28.00
2023-03-02T12:47:27.881Z,28.90
2023-03-02T12:48:27.279Z,29.10
2023-03-02T12:49:27.127Z,29.90
2023-03-02T12:50:27.141Z,31.20
2023-03-02T12:51:27.256Z,29.10
2023-03-02T12:52:27.277Z,28.20
2023-03-02T12:53:27.086Z,28.80
2023-03-02T12:54:27.069Z,28.80
2023-03-02T12:55:27.042Z,29.40